sensor_id;sensor_type;location;lat;lon;timestamp;temperature;humidity
3912;DHT22;1971;51.778;10.330;2022-10-16T00:00:42;12.10;99.90
3912;DHT22;1971;51.778;10.330;2022-10-16T00:03:16;12.10;99.90
3912;DHT22;1971;51.778;10.330;2022-10-16T00:05:46;12.10;99.90
3912;DHT22;1971;51.778;10.330;2022-10-16T00:08:19;12.10;99.90
3912;DHT22;1971;51.778;10.330;2022-10-16T00:10:50;12.10;99.90
3912;DHT22;1971;51.778;10.330;2022-10-16T00:13:20;12.10;99.90
3912;DHT22;1971;51.778;10.330;2022-10-16T00:15:54;12.10;99.90
3912;DHT22;1971;51.778;10.330;2022-10-16T00:18:24;12.10;99.90
3912;DHT22;1971;51.778;10.330;2022-10-16T00:20:55;12.20;99.90
3912;DHT22;1971;51.778;10.330;2022-10-16T00:23:28;12.20;99.90
3912;DHT22;1971;51.778;10.330;2022-10-16T00:26:00;12.30;99.90
3912;DHT22;1971;51.778;10.330;2022-10-16T00:28:32;12.40;99.90
3912;DHT22;1971;51.778;10.330;2022-10-16T00:31:05;12.40;99.90
3912;DHT22;1971;51.778;10.330;2022-10-16T00:33:37;12.50;99.90
3912;DHT22;1971;51.778;10.330;2022-10-16T00:36:11;12.50;99.90
3912;DHT22;1971;51.778;10.330;2022-10-16T00:38:45;12.60;99.90
3912;DHT22;1971;51.778;10.330;2022-10-16T00:41:16;12.70;99.90
3912;DHT22;1971;51.778;10.330;2022-10-16T00:43:48;12.70;99.90
3912;DHT22;1971;51.778;10.330;2022-10-16T00:46:21;12.70;99.90
3912;DHT22;1971;51.778;10.330;2022-10-16T00:48:54;12.80;99.90
3912;DHT22;1971;51.778;10.330;2022-10-16T00:51:34;12.80;99.90
3912;DHT22;1971;51.778;10.330;2022-10-16T00:54:10;12.80;99.90
3912;DHT22;1971;51.778;10.330;2022-10-16T00:56:42;12.80;99.90
3912;DHT22;1971;51.778;10.330;2022-10-16T00:59:16;12.90;99.90
3912;DHT22;1971;51.778;10.330;2022-10-16T01:01:47;12.90;99.90
3912;DHT22;1971;51.778;10.330;2022-10-16T01:04:17;12.80;99.90
3912;DHT22;1971;51.778;10.330;2022-10-16T01:06:53;12.80;99.90
3912;DHT22;1971;51.778;10.330;2022-10-16T01:09:34;12.80;99.90
3912;DHT22;1971;51.778;10.330;2022-10-16T01:12:12;12.80;99.90
3912;DHT22;1971;51.778;10.330;2022-10-16T01:14:48;12.80;99.90
3912;DHT22;1971;51.778;10.330;2022-10-16T01:17:28;12.80;99.90
3912;DHT22;1971;51.778;10.330;2022-10-16T01:20:08;12.70;99.90
3912;DHT22;1971;51.778;10.330;2022-10-16T01:22:48;12.70;99.90
3912;DHT22;1971;51.778;10.330;2022-10-16T01:25:29;12.70;99.90
3912;DHT22;1971;51.778;10.330;2022-10-16T01:28:05;12.60;99.90
3912;DHT22;1971;51.778;10.330;2022-10-16T01:30:37;12.60;99.90
3912;DHT22;1971;51.778;10.330;2022-10-16T01:33:13;12.60;99.90
3912;DHT22;1971;51.778;10.330;2022-10-16T01:35:47;12.60;99.90
3912;DHT22;1971;51.778;10.330;2022-10-16T01:38:25;12.60;99.90
3912;DHT22;1971;51.778;10.330;2022-10-16T01:41:00;12.60;99.90
3912;DHT22;1971;51.778;10.330;2022-10-16T01:43:38;12.60;99.90
3912;DHT22;1971;51.778;10.330;2022-10-16T01:46:10;12.60;99.90
3912;DHT22;1971;51.778;10.330;2022-10-16T01:48:43;12.60;99.90
3912;DHT22;1971;51.778;10.330;2022-10-16T01:51:15;12.60;99.90
3912;DHT22;1971;51.778;10.330;2022-10-16T01:53:49;12.60;99.90
3912;DHT22;1971;51.778;10.330;2022-10-16T01:56:21;12.60;99.90
3912;DHT22;1971;51.778;10.330;2022-10-16T01:58:58;12.70;99.90
3912;DHT22;1971;51.778;10.330;2022-10-16T02:01:32;12.70;99.90
3912;DHT22;1971;51.778;10.330;2022-10-16T02:04:09;12.70;99.90
3912;DHT22;1971;51.778;10.330;2022-10-16T02:06:42;12.70;99.90
3912;DHT22;1971;51.778;10.330;2022-10-16T02:09:12;12.70;99.90
3912;DHT22;1971;51.778;10.330;2022-10-16T02:11:44;12.70;99.90
3912;DHT22;1971;51.778;10.330;2022-10-16T02:14:19;12.70;99.90
3912;DHT22;1971;51.778;10.330;2022-10-16T02:16:52;12.70;99.90
3912;DHT22;1971;51.778;10.330;2022-10-16T02:19:22;12.70;99.90
3912;DHT22;1971;51.778;10.330;2022-10-16T02:21:56;12.70;99.90
3912;DHT22;1971;51.778;10.330;2022-10-16T02:24:33;12.80;99.90
3912;DHT22;1971;51.778;10.330;2022-10-16T02:27:08;12.70;99.90
3912;DHT22;1971;51.778;10.330;2022-10-16T02:29:45;12.70;99.90
3912;DHT22;1971;51.778;10.330;2022-10-16T02:32:21;12.70;99.90
3912;DHT22;1971;51.778;10.330;2022-10-16T02:34:54;12.70;99.90
3912;DHT22;1971;51.778;10.330;2022-10-16T02:37:25;12.70;99.90
3912;DHT22;1971;51.778;10.330;2022-10-16T02:39:58;12.70;99.90
3912;DHT22;1971;51.778;10.330;2022-10-16T02:42:33;12.70;99.90
3912;DHT22;1971;51.778;10.330;2022-10-16T02:45:09;12.70;99.90
3912;DHT22;1971;51.778;10.330;2022-10-16T02:47:39;12.60;99.90
3912;DHT22;1971;51.778;10.330;2022-10-16T02:50:10;12.60;99.90
3912;DHT22;1971;51.778;10.330;2022-10-16T02:52:40;12.60;99.90
3912;DHT22;1971;51.778;10.330;2022-10-16T02:55:11;12.60;99.90
3912;DHT22;1971;51.778;10.330;2022-10-16T02:57:41;12.50;99.90
3912;DHT22;1971;51.778;10.330;2022-10-16T03:00:16;12.50;99.90
3912;DHT22;1971;51.778;10.330;2022-10-16T03:02:47;12.50;99.90
3912;DHT22;1971;51.778;10.330;2022-10-16T03:05:17;12.60;99.90
3912;DHT22;1971;51.778;10.330;2022-10-16T03:07:49;12.50;99.90
3912;DHT22;1971;51.778;10.330;2022-10-16T03:10:20;12.50;99.90
3912;DHT22;1971;51.778;10.330;2022-10-16T03:12:50;12.50;99.90
3912;DHT22;1971;51.778;10.330;2022-10-16T03:15:24;12.50;99.90
3912;DHT22;1971;51.778;10.330;2022-10-16T03:17:57;12.50;99.90
3912;DHT22;1971;51.778;10.330;2022-10-16T03:20:28;12.50;99.90
3912;DHT22;1971;51.778;10.330;2022-10-16T03:22:59;12.50;99.90
3912;DHT22;1971;51.778;10.330;2022-10-16T03:25:30;12.50;99.90
3912;DHT22;1971;51.778;10.330;2022-10-16T03:28:01;12.50;99.90
3912;DHT22;1971;51.778;10.330;2022-10-16T03:30:35;12.40;99.90
3912;DHT22;1971;51.778;10.330;2022-10-16T03:33:06;12.40;99.90
3912;DHT22;1971;51.778;10.330;2022-10-16T03:35:37;12.40;99.90
3912;DHT22;1971;51.778;10.330;2022-10-16T03:38:07;12.40;99.90
3912;DHT22;1971;51.778;10.330;2022-10-16T03:40:37;12.50;99.90
3912;DHT22;1971;51.778;10.330;2022-10-16T03:43:08;12.40;99.90
3912;DHT22;1971;51.778;10.330;2022-10-16T03:45:42;12.40;99.90
3912;DHT22;1971;51.778;10.330;2022-10-16T03:48:12;12.40;99.90
3912;DHT22;1971;51.778;10.330;2022-10-16T03:50:42;12.40;99.90
3912;DHT22;1971;51.778;10.330;2022-10-16T03:53:13;12.40;99.90
3912;DHT22;1971;51.778;10.330;2022-10-16T03:55:45;12.40;99.90
3912;DHT22;1971;51.778;10.330;2022-10-16T03:58:15;12.40;99.90
3912;DHT22;1971;51.778;10.330;2022-10-16T04:00:50;12.40;99.90
3912;DHT22;1971;51.778;10.330;2022-10-16T04:03:20;12.40;99.90
3912;DHT22;1971;51.778;10.330;2022-10-16T04:05:50;12.40;99.90
3912;DHT22;1971;51.778;10.330;2022-10-16T04:08:21;12.40;99.90
3912;DHT22;1971;51.778;10.330;2022-10-16T04:10:51;12.40;99.90
3912;DHT22;1971;51.778;10.330;2022-10-16T04:13:22;12.40;99.90
3912;DHT22;1971;51.778;10.330;2022-10-16T04:15:56;12.40;99.90
3912;DHT22;1971;51.778;10.330;2022-10-16T04:18:27;12.40;99.90
3912;DHT22;1971;51.778;10.330;2022-10-16T04:20:57;12.40;99.90
3912;DHT22;1971;51.778;10.330;2022-10-16T04:23:31;12.50;99.90
3912;DHT22;1971;51.778;10.330;2022-10-16T04:26:02;12.40;99.90
3912;DHT22;1971;51.778;10.330;2022-10-16T04:28:35;12.50;99.90
3912;DHT22;1971;51.778;10.330;2022-10-16T04:31:09;12.50;99.90
3912;DHT22;1971;51.778;10.330;2022-10-16T04:33:42;12.50;99.90
3912;DHT22;1971;51.778;10.330;2022-10-16T04:36:12;12.50;99.90
3912;DHT22;1971;51.778;10.330;2022-10-16T04:38:42;12.50;99.90
3912;DHT22;1971;51.778;10.330;2022-10-16T04:41:12;12.40;99.90
3912;DHT22;1971;51.778;10.330;2022-10-16T04:43:43;12.50;99.90
3912;DHT22;1971;51.778;10.330;2022-10-16T04:46:15;12.40;99.90
3912;DHT22;1971;51.778;10.330;2022-10-16T04:48:45;12.40;99.90
3912;DHT22;1971;51.778;10.330;2022-10-16T04:51:15;12.40;99.90
3912;DHT22;1971;51.778;10.330;2022-10-16T04:53:46;12.40;99.90
3912;DHT22;1971;51.778;10.330;2022-10-16T04:56:16;12.40;99.90
3912;DHT22;1971;51.778;10.330;2022-10-16T04:58:46;12.40;99.90
3912;DHT22;1971;51.778;10.330;2022-10-16T05:01:19;12.40;99.90
3912;DHT22;1971;51.778;10.330;2022-10-16T05:03:49;12.30;99.90
3912;DHT22;1971;51.778;10.330;2022-10-16T05:06:20;12.30;99.90
3912;DHT22;1971;51.778;10.330;2022-10-16T05:08:50;12.30;99.90
3912;DHT22;1971;51.778;10.330;2022-10-16T05:11:20;12.30;99.90
3912;DHT22;1971;51.778;10.330;2022-10-16T05:13:50;12.30;99.90
3912;DHT22;1971;51.778;10.330;2022-10-16T05:16:24;12.30;99.90
3912;DHT22;1971;51.778;10.330;2022-10-16T05:18:55;12.30;99.90
3912;DHT22;1971;51.778;10.330;2022-10-16T05:21:45;12.20;99.90
3912;DHT22;1971;51.778;10.330;2022-10-16T05:24:15;12.20;99.90
3912;DHT22;1971;51.778;10.330;2022-10-16T05:26:46;12.20;99.90
3912;DHT22;1971;51.778;10.330;2022-10-16T05:29:16;12.20;99.90
3912;DHT22;1971;51.778;10.330;2022-10-16T05:31:50;12.20;99.90
3912;DHT22;1971;51.778;10.330;2022-10-16T05:34:21;12.20;99.90
3912;DHT22;1971;51.778;10.330;2022-10-16T05:36:51;12.20;99.90
3912;DHT22;1971;51.778;10.330;2022-10-16T05:39:21;12.20;99.90
3912;DHT22;1971;51.778;10.330;2022-10-16T05:41:51;12.20;99.90
3912;DHT22;1971;51.778;10.330;2022-10-16T05:44:22;12.20;99.90
3912;DHT22;1971;51.778;10.330;2022-10-16T05:46:55;12.20;99.90
3912;DHT22;1971;51.778;10.330;2022-10-16T05:49:25;12.20;99.90
3912;DHT22;1971;51.778;10.330;2022-10-16T05:51:55;12.20;99.90
3912;DHT22;1971;51.778;10.330;2022-10-16T05:54:25;12.20;99.90
3912;DHT22;1971;51.778;10.330;2022-10-16T05:56:55;12.10;99.90
3912;DHT22;1971;51.778;10.330;2022-10-16T05:59:26;12.10;99.90
3912;DHT22;1971;51.778;10.330;2022-10-16T06:01:59;12.10;99.90
3912;DHT22;1971;51.778;10.330;2022-10-16T06:04:30;12.10;99.90
3912;DHT22;1971;51.778;10.330;2022-10-16T06:07:00;12.10;99.90
3912;DHT22;1971;51.778;10.330;2022-10-16T06:09:30;12.10;99.90
3912;DHT22;1971;51.778;10.330;2022-10-16T06:12:01;12.10;99.90
3912;DHT22;1971;51.778;10.330;2022-10-16T06:14:32;12.10;99.90
3912;DHT22;1971;51.778;10.330;2022-10-16T06:17:06;12.10;99.90
3912;DHT22;1971;51.778;10.330;2022-10-16T06:19:36;12.00;99.90
3912;DHT22;1971;51.778;10.330;2022-10-16T06:22:06;12.00;99.90
3912;DHT22;1971;51.778;10.330;2022-10-16T06:24:36;12.00;99.90
3912;DHT22;1971;51.778;10.330;2022-10-16T06:27:07;12.00;99.90
3912;DHT22;1971;51.778;10.330;2022-10-16T06:29:37;12.00;99.90
3912;DHT22;1971;51.778;10.330;2022-10-16T06:32:10;12.00;99.90
3912;DHT22;1971;51.778;10.330;2022-10-16T06:34:40;12.00;99.90
3912;DHT22;1971;51.778;10.330;2022-10-16T06:37:10;12.00;99.90
3912;DHT22;1971;51.778;10.330;2022-10-16T06:39:40;12.00;99.90
3912;DHT22;1971;51.778;10.330;2022-10-16T06:42:11;12.00;99.90
3912;DHT22;1971;51.778;10.330;2022-10-16T06:44:41;12.00;99.90
3912;DHT22;1971;51.778;10.330;2022-10-16T06:47:14;12.10;99.90
3912;DHT22;1971;51.778;10.330;2022-10-16T06:49:44;12.10;99.90
3912;DHT22;1971;51.778;10.330;2022-10-16T06:52:20;12.10;99.90
3912;DHT22;1971;51.778;10.330;2022-10-16T06:54:51;12.00;99.90
3912;DHT22;1971;51.778;10.330;2022-10-16T06:57:21;12.10;99.90
3912;DHT22;1971;51.778;10.330;2022-10-16T06:59:51;12.10;99.90
3912;DHT22;1971;51.778;10.330;2022-10-16T07:02:24;12.10;99.90
3912;DHT22;1971;51.778;10.330;2022-10-16T07:04:55;12.20;99.90
3912;DHT22;1971;51.778;10.330;2022-10-16T07:07:25;12.20;99.90
3912;DHT22;1971;51.778;10.330;2022-10-16T07:09:55;12.10;99.90
3912;DHT22;1971;51.778;10.330;2022-10-16T07:12:26;12.20;99.90
3912;DHT22;1971;51.778;10.330;2022-10-16T07:14:56;12.20;99.90
3912;DHT22;1971;51.778;10.330;2022-10-16T07:17:29;12.20;99.90
3912;DHT22;1971;51.778;10.330;2022-10-16T07:19:59;12.10;99.90
3912;DHT22;1971;51.778;10.330;2022-10-16T07:22:29;12.20;99.90
3912;DHT22;1971;51.778;10.330;2022-10-16T07:25:00;12.20;99.90
3912;DHT22;1971;51.778;10.330;2022-10-16T07:27:30;12.20;99.90
3912;DHT22;1971;51.778;10.330;2022-10-16T07:30:00;12.30;99.90
3912;DHT22;1971;51.778;10.330;2022-10-16T07:32:38;12.30;99.90
3912;DHT22;1971;51.778;10.330;2022-10-16T07:35:08;12.30;99.90
3912;DHT22;1971;51.778;10.330;2022-10-16T07:37:38;12.30;99.90
3912;DHT22;1971;51.778;10.330;2022-10-16T07:40:09;12.30;99.90
3912;DHT22;1971;51.778;10.330;2022-10-16T07:42:40;12.30;99.90
3912;DHT22;1971;51.778;10.330;2022-10-16T07:45:10;12.40;99.90
3912;DHT22;1971;51.778;10.330;2022-10-16T07:47:43;12.40;99.90
3912;DHT22;1971;51.778;10.330;2022-10-16T07:50:13;12.40;99.90
3912;DHT22;1971;51.778;10.330;2022-10-16T07:52:44;12.40;99.90
3912;DHT22;1971;51.778;10.330;2022-10-16T07:55:14;12.40;99.90
3912;DHT22;1971;51.778;10.330;2022-10-16T07:57:44;12.50;99.90
3912;DHT22;1971;51.778;10.330;2022-10-16T08:00:15;12.50;99.90
3912;DHT22;1971;51.778;10.330;2022-10-16T08:02:49;12.50;99.90
3912;DHT22;1971;51.778;10.330;2022-10-16T08:05:19;12.50;99.90
3912;DHT22;1971;51.778;10.330;2022-10-16T08:07:50;12.50;99.90
3912;DHT22;1971;51.778;10.330;2022-10-16T08:10:22;12.50;99.90
3912;DHT22;1971;51.778;10.330;2022-10-16T08:12:53;12.50;99.90
3912;DHT22;1971;51.778;10.330;2022-10-16T08:15:23;12.50;99.90
3912;DHT22;1971;51.778;10.330;2022-10-16T08:18:01;12.60;99.90
3912;DHT22;1971;51.778;10.330;2022-10-16T08:20:32;12.60;99.90
3912;DHT22;1971;51.778;10.330;2022-10-16T08:23:03;12.70;99.90
3912;DHT22;1971;51.778;10.330;2022-10-16T08:25:34;12.80;99.90
3912;DHT22;1971;51.778;10.330;2022-10-16T08:28:10;12.70;99.90
3912;DHT22;1971;51.778;10.330;2022-10-16T08:30:41;12.80;99.90
3912;DHT22;1971;51.778;10.330;2022-10-16T08:33:14;12.70;99.90
3912;DHT22;1971;51.778;10.330;2022-10-16T08:35:50;12.60;99.90
3912;DHT22;1971;51.778;10.330;2022-10-16T08:38:21;12.50;99.90
3912;DHT22;1971;51.778;10.330;2022-10-16T08:40:51;12.50;99.90
3912;DHT22;1971;51.778;10.330;2022-10-16T08:43:40;12.50;99.90
3912;DHT22;1971;51.778;10.330;2022-10-16T08:46:25;12.60;99.90
3912;DHT22;1971;51.778;10.330;2022-10-16T08:49:02;12.50;99.90
3912;DHT22;1971;51.778;10.330;2022-10-16T08:51:35;12.50;99.90
3912;DHT22;1971;51.778;10.330;2022-10-16T08:54:21;12.60;99.90
3912;DHT22;1971;51.778;10.330;2022-10-16T08:56:54;12.60;99.90
3912;DHT22;1971;51.778;10.330;2022-10-16T08:59:26;12.60;99.90
3912;DHT22;1971;51.778;10.330;2022-10-16T09:01:57;12.60;99.90
3912;DHT22;1971;51.778;10.330;2022-10-16T09:04:47;12.60;99.90
3912;DHT22;1971;51.778;10.330;2022-10-16T09:07:28;12.70;99.90
3912;DHT22;1971;51.778;10.330;2022-10-16T09:10:10;12.80;99.90
3912;DHT22;1971;51.778;10.330;2022-10-16T09:12:51;12.80;99.90
3912;DHT22;1971;51.778;10.330;2022-10-16T09:15:29;12.80;99.90
3912;DHT22;1971;51.778;10.330;2022-10-16T09:18:06;12.80;99.90
3912;DHT22;1971;51.778;10.330;2022-10-16T09:20:49;12.70;97.60
3912;DHT22;1971;51.778;10.330;2022-10-16T09:23:24;12.70;97.70
3912;DHT22;1971;51.778;10.330;2022-10-16T09:25:56;12.60;95.10
3912;DHT22;1971;51.778;10.330;2022-10-16T09:28:28;12.60;93.70
3912;DHT22;1971;51.778;10.330;2022-10-16T09:30:58;12.60;90.90
3912;DHT22;1971;51.778;10.330;2022-10-16T09:33:30;12.60;89.20
3912;DHT22;1971;51.778;10.330;2022-10-16T09:36:06;12.70;87.10
3912;DHT22;1971;51.778;10.330;2022-10-16T09:38:37;12.70;83.90
3912;DHT22;1971;51.778;10.330;2022-10-16T09:41:15;12.70;79.50
3912;DHT22;1971;51.778;10.330;2022-10-16T09:43:49;12.60;83.60
3912;DHT22;1971;51.778;10.330;2022-10-16T09:46:25;12.70;80.70
3912;DHT22;1971;51.778;10.330;2022-10-16T09:48:58;12.70;79.90
3912;DHT22;1971;51.778;10.330;2022-10-16T09:51:33;12.70;74.20
3912;DHT22;1971;51.778;10.330;2022-10-16T09:54:14;12.70;81.20
3912;DHT22;1971;51.778;10.330;2022-10-16T09:56:45;12.90;82.10
3912;DHT22;1971;51.778;10.330;2022-10-16T09:59:20;13.00;78.00
3912;DHT22;1971;51.778;10.330;2022-10-16T10:01:53;13.20;84.00
3912;DHT22;1971;51.778;10.330;2022-10-16T10:04:26;13.40;68.90
3912;DHT22;1971;51.778;10.330;2022-10-16T10:07:21;13.80;69.10
3912;DHT22;1971;51.778;10.330;2022-10-16T10:09:56;14.10;51.70
3912;DHT22;1971;51.778;10.330;2022-10-16T10:12:28;13.90;23.20
3912;DHT22;1971;51.778;10.330;2022-10-16T10:15:06;14.30;37.30
3912;DHT22;1971;51.778;10.330;2022-10-16T10:17:45;14.10;7.20
3912;DHT22;1971;51.778;10.330;2022-10-16T10:20:23;13.70;7.20
3912;DHT22;1971;51.778;10.330;2022-10-16T10:22:57;13.60;13.70
3912;DHT22;1971;51.778;10.330;2022-10-16T10:25:41;13.90;32.00
3912;DHT22;1971;51.778;10.330;2022-10-16T10:28:26;14.30;18.70
3912;DHT22;1971;51.778;10.330;2022-10-16T10:31:02;14.30;8.20
3912;DHT22;1971;51.778;10.330;2022-10-16T10:33:40;14.20;8.90
3912;DHT22;1971;51.778;10.330;2022-10-16T10:39:11;14.50;1.00
3912;DHT22;1971;51.778;10.330;2022-10-16T10:45:02;14.40;1.00
3912;DHT22;1971;51.778;10.330;2022-10-16T10:47:47;14.60;1.00
3912;DHT22;1971;51.778;10.330;2022-10-16T10:50:25;14.90;1.00
3912;DHT22;1971;51.778;10.330;2022-10-16T10:53:02;14.90;1.00
3912;DHT22;1971;51.778;10.330;2022-10-16T10:55:50;15.10;1.00
3912;DHT22;1971;51.778;10.330;2022-10-16T10:58:42;15.30;1.00
3912;DHT22;1971;51.778;10.330;2022-10-16T11:01:15;15.40;1.00
3912;DHT22;1971;51.778;10.330;2022-10-16T11:04:07;15.60;1.00
3912;DHT22;1971;51.778;10.330;2022-10-16T11:06:44;15.80;1.00
3912;DHT22;1971;51.778;10.330;2022-10-16T11:09:19;15.70;1.00
3912;DHT22;1971;51.778;10.330;2022-10-16T11:11:58;15.50;1.00
3912;DHT22;1971;51.778;10.330;2022-10-16T11:14:34;15.00;1.00
3912;DHT22;1971;51.778;10.330;2022-10-16T11:17:10;15.40;1.00
3912;DHT22;1971;51.778;10.330;2022-10-16T11:19:44;15.60;1.00
3912;DHT22;1971;51.778;10.330;2022-10-16T11:22:22;15.50;1.00
3912;DHT22;1971;51.778;10.330;2022-10-16T11:24:55;15.60;1.00
3912;DHT22;1971;51.778;10.330;2022-10-16T11:27:37;15.80;1.00
3912;DHT22;1971;51.778;10.330;2022-10-16T11:30:14;15.80;1.00
3912;DHT22;1971;51.778;10.330;2022-10-16T11:32:55;16.00;1.00
3912;DHT22;1971;51.778;10.330;2022-10-16T11:35:36;16.10;1.00
3912;DHT22;1971;51.778;10.330;2022-10-16T11:38:14;15.40;1.00
3912;DHT22;1971;51.778;10.330;2022-10-16T11:40:48;15.10;1.00
3912;DHT22;1971;51.778;10.330;2022-10-16T11:43:26;15.00;1.00
3912;DHT22;1971;51.778;10.330;2022-10-16T11:46:01;15.10;1.00
3912;DHT22;1971;51.778;10.330;2022-10-16T11:48:39;15.00;1.00
3912;DHT22;1971;51.778;10.330;2022-10-16T11:51:14;15.00;1.00
3912;DHT22;1971;51.778;10.330;2022-10-16T11:53:53;15.30;1.00
3912;DHT22;1971;51.778;10.330;2022-10-16T11:56:30;15.80;1.00
3912;DHT22;1971;51.778;10.330;2022-10-16T11:59:07;15.80;1.00
3912;DHT22;1971;51.778;10.330;2022-10-16T12:01:43;16.20;1.00
3912;DHT22;1971;51.778;10.330;2022-10-16T12:04:20;16.40;1.00
3912;DHT22;1971;51.778;10.330;2022-10-16T12:06:55;16.50;1.00
3912;DHT22;1971;51.778;10.330;2022-10-16T12:09:29;15.80;1.00
3912;DHT22;1971;51.778;10.330;2022-10-16T12:12:00;15.60;1.00
3912;DHT22;1971;51.778;10.330;2022-10-16T12:14:38;15.30;1.00
3912;DHT22;1971;51.778;10.330;2022-10-16T12:17:38;15.00;1.00
3912;DHT22;1971;51.778;10.330;2022-10-16T12:20:25;15.20;1.00
3912;DHT22;1971;51.778;10.330;2022-10-16T12:23:00;15.30;1.00
3912;DHT22;1971;51.778;10.330;2022-10-16T12:25:32;15.40;1.00
3912;DHT22;1971;51.778;10.330;2022-10-16T12:28:05;15.50;1.00
3912;DHT22;1971;51.778;10.330;2022-10-16T12:30:38;15.70;1.00
3912;DHT22;1971;51.778;10.330;2022-10-16T12:33:21;16.10;1.00
3912;DHT22;1971;51.778;10.330;2022-10-16T12:35:53;16.20;1.00
3912;DHT22;1971;51.778;10.330;2022-10-16T12:38:27;16.30;99.90
3912;DHT22;1971;51.778;10.330;2022-10-16T12:41:01;16.30;99.90
3912;DHT22;1971;51.778;10.330;2022-10-16T12:43:40;16.10;99.90
3912;DHT22;1971;51.778;10.330;2022-10-16T12:46:37;16.00;99.90
3912;DHT22;1971;51.778;10.330;2022-10-16T12:49:30;16.10;99.90
3912;DHT22;1971;51.778;10.330;2022-10-16T12:52:01;16.20;99.90
3912;DHT22;1971;51.778;10.330;2022-10-16T12:54:34;16.30;99.90
3912;DHT22;1971;51.778;10.330;2022-10-16T12:57:18;16.10;99.90
3912;DHT22;1971;51.778;10.330;2022-10-16T13:00:04;15.90;99.90
3912;DHT22;1971;51.778;10.330;2022-10-16T13:03:04;15.70;99.90
3912;DHT22;1971;51.778;10.330;2022-10-16T13:05:49;15.70;99.90
3912;DHT22;1971;51.778;10.330;2022-10-16T13:11:41;15.40;99.90
3912;DHT22;1971;51.778;10.330;2022-10-16T13:14:25;15.40;99.90
3912;DHT22;1971;51.778;10.330;2022-10-16T13:17:06;15.50;99.90
3912;DHT22;1971;51.778;10.330;2022-10-16T13:19:45;15.60;99.90
3912;DHT22;1971;51.778;10.330;2022-10-16T13:22:23;15.80;99.90
3912;DHT22;1971;51.778;10.330;2022-10-16T13:25:03;15.80;99.90
3912;DHT22;1971;51.778;10.330;2022-10-16T13:27:46;15.60;99.90
3912;DHT22;1971;51.778;10.330;2022-10-16T13:30:21;15.50;99.90
3912;DHT22;1971;51.778;10.330;2022-10-16T13:33:00;15.50;99.90
3912;DHT22;1971;51.778;10.330;2022-10-16T13:35:35;15.50;99.90
3912;DHT22;1971;51.778;10.330;2022-10-16T13:38:12;15.70;99.90
3912;DHT22;1971;51.778;10.330;2022-10-16T13:40:51;15.90;99.90
3912;DHT22;1971;51.778;10.330;2022-10-16T13:43:25;16.10;99.90
3912;DHT22;1971;51.778;10.330;2022-10-16T13:45:58;16.00;99.90
3912;DHT22;1971;51.778;10.330;2022-10-16T13:48:29;16.10;99.90
3912;DHT22;1971;51.778;10.330;2022-10-16T13:51:10;16.30;99.90
3912;DHT22;1971;51.778;10.330;2022-10-16T13:53:42;16.20;99.90
3912;DHT22;1971;51.778;10.330;2022-10-16T13:56:14;16.40;99.90
3912;DHT22;1971;51.778;10.330;2022-10-16T13:58:44;16.10;99.90
3912;DHT22;1971;51.778;10.330;2022-10-16T14:01:17;15.90;99.90
3912;DHT22;1971;51.778;10.330;2022-10-16T14:03:49;15.90;99.90
3912;DHT22;1971;51.778;10.330;2022-10-16T14:06:22;16.10;99.90
3912;DHT22;1971;51.778;10.330;2022-10-16T14:08:58;16.30;99.90
3912;DHT22;1971;51.778;10.330;2022-10-16T14:11:29;16.30;99.90
3912;DHT22;1971;51.778;10.330;2022-10-16T14:14:00;16.30;99.90
3912;DHT22;1971;51.778;10.330;2022-10-16T14:16:31;16.00;99.90
3912;DHT22;1971;51.778;10.330;2022-10-16T14:19:04;16.00;99.90
3912;DHT22;1971;51.778;10.330;2022-10-16T14:21:40;16.10;99.90
3912;DHT22;1971;51.778;10.330;2022-10-16T14:24:11;16.00;99.90
3912;DHT22;1971;51.778;10.330;2022-10-16T14:26:43;16.00;99.90
3912;DHT22;1971;51.778;10.330;2022-10-16T14:29:17;16.00;99.90
3912;DHT22;1971;51.778;10.330;2022-10-16T14:31:55;15.90;99.90
3912;DHT22;1971;51.778;10.330;2022-10-16T14:34:27;15.90;99.90
3912;DHT22;1971;51.778;10.330;2022-10-16T14:37:08;15.80;99.90
3912;DHT22;1971;51.778;10.330;2022-10-16T14:39:39;15.90;99.90
3912;DHT22;1971;51.778;10.330;2022-10-16T14:42:14;15.90;99.90
3912;DHT22;1971;51.778;10.330;2022-10-16T14:44:47;15.90;99.90
3912;DHT22;1971;51.778;10.330;2022-10-16T14:47:23;15.90;99.90
3912;DHT22;1971;51.778;10.330;2022-10-16T14:49:56;15.90;99.90
3912;DHT22;1971;51.778;10.330;2022-10-16T14:52:29;15.70;99.90
3912;DHT22;1971;51.778;10.330;2022-10-16T14:54:59;15.70;99.90
3912;DHT22;1971;51.778;10.330;2022-10-16T14:57:33;15.60;99.90
3912;DHT22;1971;51.778;10.330;2022-10-16T15:00:13;15.60;99.90
3912;DHT22;1971;51.778;10.330;2022-10-16T15:02:45;15.70;99.90
3912;DHT22;1971;51.778;10.330;2022-10-16T15:05:18;15.70;99.90
3912;DHT22;1971;51.778;10.330;2022-10-16T15:07:52;15.50;99.90
3912;DHT22;1971;51.778;10.330;2022-10-16T15:10:24;15.30;99.90
3912;DHT22;1971;51.778;10.330;2022-10-16T15:12:55;15.10;99.90
3912;DHT22;1971;51.778;10.330;2022-10-16T15:15:32;15.00;99.90
3912;DHT22;1971;51.778;10.330;2022-10-16T15:18:03;14.90;99.90
3912;DHT22;1971;51.778;10.330;2022-10-16T15:20:35;15.00;99.90
3912;DHT22;1971;51.778;10.330;2022-10-16T15:23:13;15.20;99.90
3912;DHT22;1971;51.778;10.330;2022-10-16T15:25:45;15.40;99.90
3912;DHT22;1971;51.778;10.330;2022-10-16T15:28:16;15.50;99.90
3912;DHT22;1971;51.778;10.330;2022-10-16T15:30:49;15.60;99.90
3912;DHT22;1971;51.778;10.330;2022-10-16T15:33:21;15.70;99.90
3912;DHT22;1971;51.778;10.330;2022-10-16T15:35:55;15.70;99.90
3912;DHT22;1971;51.778;10.330;2022-10-16T15:38:28;15.50;99.90
3912;DHT22;1971;51.778;10.330;2022-10-16T15:40:58;15.20;99.90
3912;DHT22;1971;51.778;10.330;2022-10-16T15:43:28;15.00;99.90
3912;DHT22;1971;51.778;10.330;2022-10-16T15:46:00;14.80;99.90
3912;DHT22;1971;51.778;10.330;2022-10-16T15:48:32;14.60;99.90
3912;DHT22;1971;51.778;10.330;2022-10-16T15:51:05;14.40;99.90
3912;DHT22;1971;51.778;10.330;2022-10-16T15:53:39;14.40;99.90
3912;DHT22;1971;51.778;10.330;2022-10-16T15:56:10;14.30;99.90
3912;DHT22;1971;51.778;10.330;2022-10-16T15:58:42;14.20;99.90
3912;DHT22;1971;51.778;10.330;2022-10-16T16:01:12;14.10;99.90
3912;DHT22;1971;51.778;10.330;2022-10-16T16:03:43;14.00;99.90
3912;DHT22;1971;51.778;10.330;2022-10-16T16:06:14;13.80;99.90
3912;DHT22;1971;51.778;10.330;2022-10-16T16:08:47;13.50;99.90
3912;DHT22;1971;51.778;10.330;2022-10-16T16:11:19;13.40;99.90
3912;DHT22;1971;51.778;10.330;2022-10-16T16:13:50;13.30;99.90
3912;DHT22;1971;51.778;10.330;2022-10-16T16:16:22;13.20;99.90
3912;DHT22;1971;51.778;10.330;2022-10-16T16:18:52;13.10;99.90
3912;DHT22;1971;51.778;10.330;2022-10-16T16:21:23;13.00;99.90
3912;DHT22;1971;51.778;10.330;2022-10-16T16:23:55;12.80;99.90
3912;DHT22;1971;51.778;10.330;2022-10-16T16:26:27;12.80;99.90
3912;DHT22;1971;51.778;10.330;2022-10-16T16:29:01;12.70;99.90
3912;DHT22;1971;51.778;10.330;2022-10-16T16:31:32;12.60;99.90
3912;DHT22;1971;51.778;10.330;2022-10-16T16:34:03;12.60;99.90
3912;DHT22;1971;51.778;10.330;2022-10-16T16:36:34;12.30;99.90
3912;DHT22;1971;51.778;10.330;2022-10-16T16:39:07;12.20;99.90